Талон

Карта отелей и гостиниц, располагающихся рядом с аэропортом Талон :

Талон Магаданская область 59° 46' 9.5988" N, 148° 38' 40.74" E
Код аэродрома ИКАО
ZCB1
Код аэродрома RU
ЗЦБ1
Координаты
N59.76933° E148.64465°
Превышение над уровнем моря
25
Основная полоса
18/36
Курс магнитный
001/181
Длина основной ВПП
711
Ширина основной ВПП
45
Покрытие основной ВПП
Нетвёрдое (грунт)
Освещение ВПП
Нет
Тип: 
Аэродром
Класс аэродрома: 
Принадлежность: 
ГА
Статус: 
Недействующий
Сайт: 
E-mail аэродрома: 
Страна: 
Россия
Регион: 
Магаданская область
Город: 
Дополнительная информация: 
Магаданская область, Россия. Магнитное склонение: -11.7° Раньше работала сельхозавиация, доставка почты.

Найти трансфер

С помощью этой формы Вы можете найти трансфер из аэропорта Талон в город, аэропорт или вокзал:

Карта места

Javascript is required to view this map.

Погода в аэропортах:

Авиационная погода в Мирном

Регион: 
Погода METAR: 
UERR 051100Z 25002MPS 1000 HZ VV004 19/15 Q1006 R25/CLRD60 TEMPO 0500 HZ RMK QBB140 QFE724/0965
Время наблюдения
2021-08-05T11:00:00Z
Температура C
19.0
Точка росы
15.0
Направление ветра
250
Скорость ветра (узлы)
4
Метео видимость
0.62
Явления погоды
HZ
Условия полета
LIFR
Аэропорт подробнее: 

Авиационная погода в Москва - Внуково

Погода METAR: 
UUWW 051100Z 00000MPS 9999 -RA BKN026 19/15 Q1016 R06/290050 NOSIG
Время наблюдения
2021-08-05T11:00:00Z
Температура C
19.0
Точка росы
15.0
Направление ветра
0
Скорость ветра (узлы)
0
Метео видимость
6.21
Явления погоды
-RA
Условия полета
MVFR
Аэропорт подробнее: 

Авиационная погода в Игнатьево

Регион: 
Погода METAR: 
UHBB 051100Z 28002MPS 220V300 9999 -TSRA BKN033CB 20/20 Q0995 R36/290350 NOSIG RMK QFE729/0972
Время наблюдения
2021-08-05T11:00:00Z
Температура C
20.0
Точка росы
20.0
Направление ветра
280
Скорость ветра (узлы)
4
Метео видимость
6.21
Явления погоды
-TSRA
Условия полета
VFR
Аэропорт подробнее: 

Авиационная погода в Савонлинна

Регион: 
Погода METAR: 
EFSA 051050Z AUTO 02007KT 350V060 9999 VCSH //////CB 18/09 Q1016
Время наблюдения
2021-08-05T10:50:00Z
Температура C
18.0
Точка росы
9.0
Направление ветра
20
Скорость ветра (узлы)
7
Метео видимость
6.21
Явления погоды
VCSH
Условия полета